sensor_id;sensor_type;location;lat;lon;timestamp;pressure;altitude;pressure_sealevel;temperature;humidity
7109;BME280;29079;41.930;25.558;2023-03-22T00:01:38;99241.47;;;9.23;99.88
7109;BME280;29079;41.930;25.558;2023-03-22T00:04:12;99232.97;;;9.30;100.00
7109;BME280;29079;41.930;25.558;2023-03-22T00:06:45;99243.16;;;9.24;100.00
7109;BME280;29079;41.930;25.558;2023-03-22T00:09:18;99245.53;;;9.18;100.00
7109;BME280;29079;41.930;25.558;2023-03-22T00:11:54;99244.75;;;9.37;100.00
7109;BME280;29079;41.930;25.558;2023-03-22T00:14:29;99247.84;;;9.42;100.00
7109;BME280;29079;41.930;25.558;2023-03-22T00:17:03;99252.75;;;9.37;100.00
7109;BME280;29079;41.930;25.558;2023-03-22T00:19:36;99253.88;;;9.44;100.00
7109;BME280;29079;41.930;25.558;2023-03-22T00:22:12;99255.41;;;9.37;100.00
7109;BME280;29079;41.930;25.558;2023-03-22T00:24:46;99265.47;;;9.33;100.00
7109;BME280;29079;41.930;25.558;2023-03-22T00:27:19;99257.91;;;9.29;100.00
7109;BME280;29079;41.930;25.558;2023-03-22T00:29:54;99258.81;;;9.08;100.00
7109;BME280;29079;41.930;25.558;2023-03-22T00:32:27;99254.50;;;9.17;100.00
7109;BME280;29079;41.930;25.558;2023-03-22T00:35:00;99249.53;;;9.02;100.00
7109;BME280;29079;41.930;25.558;2023-03-22T00:37:34;99253.19;;;9.11;100.00
7109;BME280;29079;41.930;25.558;2023-03-22T00:40:10;99252.53;;;9.19;100.00
7109;BME280;29079;41.930;25.558;2023-03-22T00:42:43;99247.88;;;9.11;100.00
7109;BME280;29079;41.930;25.558;2023-03-22T00:45:18;99254.63;;;9.15;100.00
7109;BME280;29079;41.930;25.558;2023-03-22T00:47:52;99259.56;;;8.99;100.00
7109;BME280;29079;41.930;25.558;2023-03-22T00:50:25;99249.03;;;8.87;100.00
7109;BME280;29079;41.930;25.558;2023-03-22T00:52:58;99253.50;;;8.87;100.00
7109;BME280;29079;41.930;25.558;2023-03-22T00:55:31;99256.97;;;9.09;100.00
7109;BME280;29079;41.930;25.558;2023-03-22T00:58:04;99259.47;;;9.00;100.00
7109;BME280;29079;41.930;25.558;2023-03-22T01:00:39;99258.06;;;8.96;100.00
7109;BME280;29079;41.930;25.558;2023-03-22T01:03:13;99253.09;;;8.92;100.00
7109;BME280;29079;41.930;25.558;2023-03-22T01:05:47;99258.13;;;8.85;100.00
7109;BME280;29079;41.930;25.558;2023-03-22T01:08:21;99253.09;;;8.92;100.00
7109;BME280;29079;41.930;25.558;2023-03-22T01:10:54;99244.16;;;8.93;100.00
7109;BME280;29079;41.930;25.558;2023-03-22T01:13:28;99249.94;;;8.77;100.00
7109;BME280;29079;41.930;25.558;2023-03-22T01:16:03;99251.09;;;8.84;100.00
7109;BME280;29079;41.930;25.558;2023-03-22T01:18:37;99256.03;;;8.88;100.00
7109;BME280;29079;41.930;25.558;2023-03-22T01:21:10;99255.25;;;8.98;100.00
7109;BME280;29079;41.930;25.558;2023-03-22T01:23:42;99259.69;;;8.87;100.00
7109;BME280;29079;41.930;25.558;2023-03-22T01:26:15;99266.41;;;8.92;100.00
7109;BME280;29079;41.930;25.558;2023-03-22T01:28:49;99270.47;;;8.86;100.00
7109;BME280;29079;41.930;25.558;2023-03-22T01:31:23;99262.22;;;8.89;100.00
7109;BME280;29079;41.930;25.558;2023-03-22T01:33:57;99282.50;;;8.90;100.00
7109;BME280;29079;41.930;25.558;2023-03-22T01:36:30;99280.44;;;8.94;100.00
7109;BME280;29079;41.930;25.558;2023-03-22T01:39:03;99269.34;;;8.88;100.00
7109;BME280;29079;41.930;25.558;2023-03-22T01:41:36;99266.06;;;9.06;100.00
7109;BME280;29079;41.930;25.558;2023-03-22T01:44:10;99263.09;;;8.99;100.00
7109;BME280;29079;41.930;25.558;2023-03-22T01:46:45;99264.53;;;9.03;100.00
7109;BME280;29079;41.930;25.558;2023-03-22T01:49:20;99262.47;;;8.86;100.00
7109;BME280;29079;41.930;25.558;2023-03-22T01:51:56;99261.22;;;8.90;100.00
7109;BME280;29079;41.930;25.558;2023-03-22T01:54:33;99254.63;;;8.84;100.00
7109;BME280;29079;41.930;25.558;2023-03-22T01:57:07;99259.81;;;8.86;100.00
7109;BME280;29079;41.930;25.558;2023-03-22T01:59:41;99261.44;;;8.77;100.00
7109;BME280;29079;41.930;25.558;2023-03-22T02:02:17;99265.09;;;8.76;100.00
7109;BME280;29079;41.930;25.558;2023-03-22T02:04:50;99265.00;;;8.66;100.00
7109;BME280;29079;41.930;25.558;2023-03-22T02:07:28;99269.69;;;8.53;100.00
7109;BME280;29079;41.930;25.558;2023-03-22T02:10:02;99273.97;;;8.65;100.00
7109;BME280;29079;41.930;25.558;2023-03-22T02:12:39;99273.91;;;8.56;100.00
7109;BME280;29079;41.930;25.558;2023-03-22T02:15:16;99271.31;;;8.44;100.00
7109;BME280;29079;41.930;25.558;2023-03-22T02:17:57;99276.84;;;8.52;100.00
7109;BME280;29079;41.930;25.558;2023-03-22T02:29:25;99253.81;;;8.63;100.00
7109;BME280;29079;41.930;25.558;2023-03-22T02:32:15;99189.44;;;8.27;100.00
7109;BME280;29079;41.930;25.558;2023-03-22T02:40:51;99259.63;;;8.57;100.00
7109;BME280;29079;41.930;25.558;2023-03-22T02:43:27;99247.19;;;8.57;100.00
7109;BME280;29079;41.930;25.558;2023-03-22T02:46:10;99236.41;;;8.59;100.00
7109;BME280;29079;41.930;25.558;2023-03-22T02:48:48;99220.38;;;8.49;100.00
7109;BME280;29079;41.930;25.558;2023-03-22T02:51:25;99212.28;;;8.50;100.00
7109;BME280;29079;41.930;25.558;2023-03-22T02:54:01;99209.63;;;8.50;100.00
7109;BME280;29079;41.930;25.558;2023-03-22T02:56:38;99209.22;;;8.55;100.00
7109;BME280;29079;41.930;25.558;2023-03-22T02:59:13;99207.56;;;8.54;100.00
7109;BME280;29079;41.930;25.558;2023-03-22T03:01:48;99210.59;;;8.49;100.00
7109;BME280;29079;41.930;25.558;2023-03-22T03:04:23;99206.63;;;8.44;100.00
7109;BME280;29079;41.930;25.558;2023-03-22T03:06:59;99201.25;;;8.34;100.00
7109;BME280;29079;41.930;25.558;2023-03-22T03:09:35;99205.81;;;8.32;100.00
7109;BME280;29079;41.930;25.558;2023-03-22T03:12:13;99207.50;;;8.44;100.00
7109;BME280;29079;41.930;25.558;2023-03-22T03:14:50;99226.19;;;8.43;100.00
7109;BME280;29079;41.930;25.558;2023-03-22T03:17:27;99230.47;;;8.45;100.00
7109;BME280;29079;41.930;25.558;2023-03-22T03:20:11;99225.25;;;8.44;100.00
7109;BME280;29079;41.930;25.558;2023-03-22T03:22:48;99236.50;;;8.36;100.00
7109;BME280;29079;41.930;25.558;2023-03-22T03:25:24;99232.47;;;8.42;100.00
7109;BME280;29079;41.930;25.558;2023-03-22T03:28:02;99233.97;;;8.34;100.00
7109;BME280;29079;41.930;25.558;2023-03-22T03:30:39;99232.75;;;8.39;100.00
7109;BME280;29079;41.930;25.558;2023-03-22T03:33:17;99246.88;;;8.39;100.00
7109;BME280;29079;41.930;25.558;2023-03-22T03:35:53;99264.06;;;8.35;100.00
7109;BME280;29079;41.930;25.558;2023-03-22T03:38:29;99264.56;;;8.29;100.00
7109;BME280;29079;41.930;25.558;2023-03-22T03:41:04;99264.41;;;8.42;100.00
7109;BME280;29079;41.930;25.558;2023-03-22T03:43:39;99264.97;;;8.24;100.00
7109;BME280;29079;41.930;25.558;2023-03-22T03:46:14;99271.34;;;8.33;100.00
7109;BME280;29079;41.930;25.558;2023-03-22T03:48:48;99267.75;;;8.23;100.00
7109;BME280;29079;41.930;25.558;2023-03-22T03:51:22;99267.88;;;8.21;100.00
7109;BME280;29079;41.930;25.558;2023-03-22T03:53:56;99275.59;;;8.24;100.00
7109;BME280;29079;41.930;25.558;2023-03-22T03:56:29;99270.66;;;8.19;100.00
7109;BME280;29079;41.930;25.558;2023-03-22T03:59:03;99280.88;;;8.35;100.00
7109;BME280;29079;41.930;25.558;2023-03-22T04:01:38;99271.97;;;8.25;100.00
7109;BME280;29079;41.930;25.558;2023-03-22T04:04:11;99283.41;;;8.37;100.00
7109;BME280;29079;41.930;25.558;2023-03-22T04:06:46;99268.47;;;8.25;100.00
7109;BME280;29079;41.930;25.558;2023-03-22T04:09:19;99280.22;;;8.22;100.00
7109;BME280;29079;41.930;25.558;2023-03-22T04:11:53;99282.66;;;8.35;100.00
7109;BME280;29079;41.930;25.558;2023-03-22T04:14:29;99294.47;;;8.42;100.00
7109;BME280;29079;41.930;25.558;2023-03-22T04:17:02;99292.63;;;8.22;100.00
7109;BME280;29079;41.930;25.558;2023-03-22T04:19:35;99294.25;;;8.13;100.00
7109;BME280;29079;41.930;25.558;2023-03-22T04:22:09;99301.38;;;8.12;100.00
7109;BME280;29079;41.930;25.558;2023-03-22T04:24:49;99295.44;;;8.20;100.00
7109;BME280;29079;41.930;25.558;2023-03-22T04:27:22;99297.38;;;8.18;100.00
7109;BME280;29079;41.930;25.558;2023-03-22T04:29:56;99304.19;;;8.11;100.00
7109;BME280;29079;41.930;25.558;2023-03-22T04:32:32;99296.88;;;8.24;100.00
7109;BME280;29079;41.930;25.558;2023-03-22T04:35:05;99306.69;;;8.12;100.00
7109;BME280;29079;41.930;25.558;2023-03-22T04:37:38;99305.75;;;8.13;100.00
7109;BME280;29079;41.930;25.558;2023-03-22T04:40:12;99309.50;;;8.11;100.00
7109;BME280;29079;41.930;25.558;2023-03-22T04:42:47;99309.69;;;8.19;100.00
7109;BME280;29079;41.930;25.558;2023-03-22T04:45:23;99304.44;;;8.08;100.00
7109;BME280;29079;41.930;25.558;2023-03-22T04:48:00;99310.81;;;8.16;100.00
7109;BME280;29079;41.930;25.558;2023-03-22T04:50:33;99315.13;;;8.17;100.00
7109;BME280;29079;41.930;25.558;2023-03-22T04:53:06;99323.28;;;8.05;100.00
7109;BME280;29079;41.930;25.558;2023-03-22T04:55:39;99317.63;;;7.98;100.00
7109;BME280;29079;41.930;25.558;2023-03-22T04:58:12;99325.56;;;8.09;100.00
7109;BME280;29079;41.930;25.558;2023-03-22T05:00:48;99325.88;;;8.16;100.00
7109;BME280;29079;41.930;25.558;2023-03-22T05:03:23;99321.84;;;8.33;100.00
7109;BME280;29079;41.930;25.558;2023-03-22T05:05:57;99321.50;;;8.26;100.00
7109;BME280;29079;41.930;25.558;2023-03-22T05:08:32;99325.06;;;8.15;100.00
7109;BME280;29079;41.930;25.558;2023-03-22T05:11:06;99326.53;;;8.08;100.00
7109;BME280;29079;41.930;25.558;2023-03-22T05:13:40;99325.75;;;8.17;100.00
7109;BME280;29079;41.930;25.558;2023-03-22T05:16:15;99327.59;;;8.17;100.00
7109;BME280;29079;41.930;25.558;2023-03-22T05:18:49;99322.91;;;8.09;100.00
7109;BME280;29079;41.930;25.558;2023-03-22T05:21:25;99327.84;;;8.14;100.00
7109;BME280;29079;41.930;25.558;2023-03-22T05:23:59;99333.97;;;8.26;100.00
7109;BME280;29079;41.930;25.558;2023-03-22T05:26:32;99349.78;;;8.27;100.00
7109;BME280;29079;41.930;25.558;2023-03-22T05:29:08;99347.88;;;8.29;100.00
7109;BME280;29079;41.930;25.558;2023-03-22T05:31:43;99364.28;;;8.23;100.00
7109;BME280;29079;41.930;25.558;2023-03-22T05:34:16;99359.09;;;8.22;100.00
7109;BME280;29079;41.930;25.558;2023-03-22T05:36:51;99366.13;;;8.11;100.00
7109;BME280;29079;41.930;25.558;2023-03-22T05:39:24;99367.50;;;7.94;100.00
7109;BME280;29079;41.930;25.558;2023-03-22T05:41:57;99361.91;;;8.09;100.00
7109;BME280;29079;41.930;25.558;2023-03-22T05:44:30;99372.31;;;8.12;100.00
7109;BME280;29079;41.930;25.558;2023-03-22T05:47:04;99374.34;;;8.19;100.00
7109;BME280;29079;41.930;25.558;2023-03-22T05:49:37;99376.25;;;8.17;100.00
7109;BME280;29079;41.930;25.558;2023-03-22T05:52:11;99374.09;;;8.23;100.00
7109;BME280;29079;41.930;25.558;2023-03-22T05:54:45;99377.00;;;8.19;100.00
7109;BME280;29079;41.930;25.558;2023-03-22T05:57:18;99372.72;;;8.40;100.00
7109;BME280;29079;41.930;25.558;2023-03-22T05:59:52;99382.03;;;8.34;100.00
7109;BME280;29079;41.930;25.558;2023-03-22T06:02:26;99397.63;;;8.39;100.00
7109;BME280;29079;41.930;25.558;2023-03-22T06:04:59;99411.78;;;8.28;100.00
7109;BME280;29079;41.930;25.558;2023-03-22T06:07:32;99421.13;;;8.22;100.00
7109;BME280;29079;41.930;25.558;2023-03-22T06:10:08;99415.88;;;8.32;100.00
7109;BME280;29079;41.930;25.558;2023-03-22T06:12:43;99429.66;;;8.26;100.00
7109;BME280;29079;41.930;25.558;2023-03-22T06:15:16;99424.00;;;8.19;100.00
7109;BME280;29079;41.930;25.558;2023-03-22T06:17:50;99429.22;;;8.21;100.00
7109;BME280;29079;41.930;25.558;2023-03-22T06:20:23;99423.38;;;8.38;100.00
7109;BME280;29079;41.930;25.558;2023-03-22T06:22:57;99430.47;;;8.37;100.00
7109;BME280;29079;41.930;25.558;2023-03-22T06:25:31;99439.19;;;8.40;100.00
7109;BME280;29079;41.930;25.558;2023-03-22T06:28:04;99437.50;;;8.50;100.00
7109;BME280;29079;41.930;25.558;2023-03-22T06:30:39;99436.88;;;8.35;100.00
7109;BME280;29079;41.930;25.558;2023-03-22T06:33:14;99433.53;;;8.44;100.00
7109;BME280;29079;41.930;25.558;2023-03-22T06:35:47;99439.69;;;8.45;100.00
7109;BME280;29079;41.930;25.558;2023-03-22T06:38:21;99437.88;;;8.45;100.00
7109;BME280;29079;41.930;25.558;2023-03-22T06:40:54;99439.91;;;8.42;100.00
7109;BME280;29079;41.930;25.558;2023-03-22T06:43:27;99441.13;;;8.37;100.00
7109;BME280;29079;41.930;25.558;2023-03-22T06:46:00;99451.63;;;8.39;100.00
7109;BME280;29079;41.930;25.558;2023-03-22T06:48:35;99443.41;;;8.53;100.00
7109;BME280;29079;41.930;25.558;2023-03-22T06:51:08;99452.38;;;8.52;100.00
7109;BME280;29079;41.930;25.558;2023-03-22T06:53:41;99455.41;;;8.36;100.00
7109;BME280;29079;41.930;25.558;2023-03-22T06:56:16;99458.91;;;8.37;100.00
7109;BME280;29079;41.930;25.558;2023-03-22T06:58:49;99458.53;;;8.30;100.00
7109;BME280;29079;41.930;25.558;2023-03-22T07:01:23;99463.72;;;8.32;100.00
7109;BME280;29079;41.930;25.558;2023-03-22T07:03:58;99462.31;;;8.28;100.00
7109;BME280;29079;41.930;25.558;2023-03-22T07:06:31;99463.16;;;8.17;100.00
7109;BME280;29079;41.930;25.558;2023-03-22T07:09:04;99467.38;;;8.31;100.00
7109;BME280;29079;41.930;25.558;2023-03-22T07:11:38;99459.28;;;8.32;100.00
7109;BME280;29079;41.930;25.558;2023-03-22T07:14:12;99456.81;;;8.41;100.00
7109;BME280;29079;41.930;25.558;2023-03-22T07:16:45;99458.66;;;8.40;100.00
7109;BME280;29079;41.930;25.558;2023-03-22T07:19:20;99466.88;;;8.37;100.00
7109;BME280;29079;41.930;25.558;2023-03-22T07:21:53;99467.97;;;8.34;100.00
7109;BME280;29079;41.930;25.558;2023-03-22T07:24:27;99472.56;;;8.32;100.00
7109;BME280;29079;41.930;25.558;2023-03-22T07:27:00;99473.91;;;8.38;100.00
7109;BME280;29079;41.930;25.558;2023-03-22T07:29:33;99475.31;;;8.42;100.00
7109;BME280;29079;41.930;25.558;2023-03-22T07:32:06;99470.75;;;8.44;100.00
7109;BME280;29079;41.930;25.558;2023-03-22T07:34:41;99470.84;;;8.43;100.00
7109;BME280;29079;41.930;25.558;2023-03-22T07:37:14;99468.69;;;8.48;100.00
7109;BME280;29079;41.930;25.558;2023-03-22T07:39:47;99468.44;;;8.40;100.00
7109;BME280;29079;41.930;25.558;2023-03-22T07:42:21;99472.91;;;8.50;100.00
7109;BME280;29079;41.930;25.558;2023-03-22T07:44:54;99471.72;;;8.54;100.00
7109;BME280;29079;41.930;25.558;2023-03-22T07:47:27;99473.66;;;8.52;100.00
7109;BME280;29079;41.930;25.558;2023-03-22T07:50:13;99477.50;;;8.60;100.00
7109;BME280;29079;41.930;25.558;2023-03-22T07:52:47;99478.47;;;8.59;100.00
7109;BME280;29079;41.930;25.558;2023-03-22T07:55:21;99481.59;;;8.64;100.00
7109;BME280;29079;41.930;25.558;2023-03-22T07:57:54;99474.34;;;8.66;100.00
7109;BME280;29079;41.930;25.558;2023-03-22T08:00:27;99479.06;;;8.51;100.00
7109;BME280;29079;41.930;25.558;2023-03-22T08:03:01;99483.53;;;8.62;100.00
7109;BME280;29079;41.930;25.558;2023-03-22T08:05:35;99490.56;;;8.63;100.00
7109;BME280;29079;41.930;25.558;2023-03-22T08:08:11;99481.81;;;8.72;100.00
7109;BME280;29079;41.930;25.558;2023-03-22T08:10:47;99490.28;;;8.77;100.00
7109;BME280;29079;41.930;25.558;2023-03-22T08:13:21;99496.47;;;8.99;100.00
7109;BME280;29079;41.930;25.558;2023-03-22T08:15:54;99499.31;;;8.86;100.00
7109;BME280;29079;41.930;25.558;2023-03-22T08:18:27;99489.25;;;8.89;100.00
7109;BME280;29079;41.930;25.558;2023-03-22T08:21:03;99494.81;;;8.98;100.00
7109;BME280;29079;41.930;25.558;2023-03-22T08:23:36;99496.03;;;8.94;100.00
7109;BME280;29079;41.930;25.558;2023-03-22T08:26:13;99500.31;;;9.06;100.00
7109;BME280;29079;41.930;25.558;2023-03-22T08:28:46;99502.34;;;9.14;100.00
7109;BME280;29079;41.930;25.558;2023-03-22T08:31:19;99504.28;;;9.12;100.00
7109;BME280;29079;41.930;25.558;2023-03-22T08:33:53;99498.13;;;9.11;100.00
7109;BME280;29079;41.930;25.558;2023-03-22T08:36:28;99503.78;;;9.18;100.00
7109;BME280;29079;41.930;25.558;2023-03-22T08:39:01;99512.34;;;9.21;100.00
7109;BME280;29079;41.930;25.558;2023-03-22T08:41:35;99507.69;;;9.14;100.00
7109;BME280;29079;41.930;25.558;2023-03-22T08:44:08;99508.88;;;9.21;100.00
7109;BME280;29079;41.930;25.558;2023-03-22T08:46:41;99509.13;;;9.39;100.00
7109;BME280;29079;41.930;25.558;2023-03-22T08:49:14;99509.72;;;9.43;100.00
7109;BME280;29079;41.930;25.558;2023-03-22T08:51:49;99503.81;;;9.39;100.00
7109;BME280;29079;41.930;25.558;2023-03-22T08:54:22;99507.25;;;9.72;100.00
7109;BME280;29079;41.930;25.558;2023-03-22T08:56:55;99504.91;;;9.57;100.00
7109;BME280;29079;41.930;25.558;2023-03-22T08:59:30;99513.41;;;9.72;100.00
7109;BME280;29079;41.930;25.558;2023-03-22T09:02:03;99516.91;;;9.73;100.00
7109;BME280;29079;41.930;25.558;2023-03-22T09:04:37;99505.53;;;9.71;100.00
7109;BME280;29079;41.930;25.558;2023-03-22T09:07:11;99509.44;;;9.67;100.00
7109;BME280;29079;41.930;25.558;2023-03-22T09:09:44;99514.78;;;9.67;100.00
7109;BME280;29079;41.930;25.558;2023-03-22T09:12:18;99463.31;;;9.45;100.00
7109;BME280;29079;41.930;25.558;2023-03-22T09:14:52;99516.97;;;9.83;100.00
7109;BME280;29079;41.930;25.558;2023-03-22T09:17:28;99513.75;;;9.79;100.00
7109;BME280;29079;41.930;25.558;2023-03-22T09:20:01;99509.84;;;9.83;100.00
7109;BME280;29079;41.930;25.558;2023-03-22T09:22:45;99513.53;;;9.71;100.00
7109;BME280;29079;41.930;25.558;2023-03-22T09:25:18;99501.91;;;9.72;100.00
7109;BME280;29079;41.930;25.558;2023-03-22T09:27:52;99512.09;;;9.67;100.00
7109;BME280;29079;41.930;25.558;2023-03-22T09:30:25;99510.03;;;9.70;100.00
7109;BME280;29079;41.930;25.558;2023-03-22T09:32:58;99508.47;;;9.68;100.00
7109;BME280;29079;41.930;25.558;2023-03-22T09:35:32;99501.66;;;9.75;100.00
7109;BME280;29079;41.930;25.558;2023-03-22T09:38:06;99504.50;;;9.83;100.00
7109;BME280;29079;41.930;25.558;2023-03-22T09:40:42;99506.94;;;9.96;99.59
7109;BME280;29079;41.930;25.558;2023-03-22T09:43:18;99501.69;;;10.16;100.00
7109;BME280;29079;41.930;25.558;2023-03-22T09:45:51;99501.84;;;10.14;98.56
7109;BME280;29079;41.930;25.558;2023-03-22T09:48:26;99494.84;;;10.23;96.10
7109;BME280;29079;41.930;25.558;2023-03-22T09:51:01;99497.81;;;10.29;95.45
7109;BME280;29079;41.930;25.558;2023-03-22T09:53:35;99492.13;;;10.34;95.09
7109;BME280;29079;41.930;25.558;2023-03-22T09:56:10;99502.81;;;10.54;95.07
7109;BME280;29079;41.930;25.558;2023-03-22T09:58:46;99496.94;;;10.50;94.21
7109;BME280;29079;41.930;25.558;2023-03-22T10:01:25;99510.38;;;10.39;92.07
7109;BME280;29079;41.930;25.558;2023-03-22T10:04:03;99507.34;;;10.53;91.81
7109;BME280;29079;41.930;25.558;2023-03-22T10:06:38;99506.09;;;10.57;90.25
7109;BME280;29079;41.930;25.558;2023-03-22T10:09:14;99512.97;;;10.70;91.75
7109;BME280;29079;41.930;25.558;2023-03-22T10:11:56;99516.84;;;10.46;91.33
7109;BME280;29079;41.930;25.558;2023-03-22T10:14:37;99518.41;;;10.49;90.85
7109;BME280;29079;41.930;25.558;2023-03-22T10:17:13;99516.47;;;10.29;90.80
7109;BME280;29079;41.930;25.558;2023-03-22T10:19:49;99516.16;;;10.54;91.80
7109;BME280;29079;41.930;25.558;2023-03-22T10:22:25;99524.50;;;10.60;90.54
7109;BME280;29079;41.930;25.558;2023-03-22T10:25:02;99522.22;;;10.56;89.37
7109;BME280;29079;41.930;25.558;2023-03-22T10:27:36;99463.25;;;10.18;90.24
7109;BME280;29079;41.930;25.558;2023-03-22T10:30:17;99519.41;;;10.48;91.33
7109;BME280;29079;41.930;25.558;2023-03-22T10:32:54;99515.56;;;10.40;92.68
7109;BME280;29079;41.930;25.558;2023-03-22T10:35:29;99519.06;;;10.41;92.51
7109;BME280;29079;41.930;25.558;2023-03-22T10:38:03;99520.22;;;10.17;92.67
7109;BME280;29079;41.930;25.558;2023-03-22T10:40:40;99510.50;;;10.37;92.74
7109;BME280;29079;41.930;25.558;2023-03-22T10:43:14;99508.44;;;10.51;93.06
7109;BME280;29079;41.930;25.558;2023-03-22T10:45:49;99510.44;;;10.68;90.88
7109;BME280;29079;41.930;25.558;2023-03-22T10:48:25;99508.22;;;10.73;89.28
7109;BME280;29079;41.930;25.558;2023-03-22T10:50:59;99491.38;;;10.92;88.76
7109;BME280;29079;41.930;25.558;2023-03-22T10:53:35;99501.50;;;10.79;87.23
7109;BME280;29079;41.930;25.558;2023-03-22T10:56:11;99499.69;;;10.89;89.44
7109;BME280;29079;41.930;25.558;2023-03-22T10:58:46;99494.91;;;11.03;88.00
7109;BME280;29079;41.930;25.558;2023-03-22T11:01:25;99486.59;;;11.06;86.89
7109;BME280;29079;41.930;25.558;2023-03-22T11:03:59;99489.38;;;10.85;86.18
7109;BME280;29079;41.930;25.558;2023-03-22T11:06:38;99492.50;;;11.00;87.72
7109;BME280;29079;41.930;25.558;2023-03-22T11:09:14;99490.38;;;11.03;86.72
7109;BME280;29079;41.930;25.558;2023-03-22T11:11:57;99494.91;;;11.03;86.80
7109;BME280;29079;41.930;25.558;2023-03-22T11:14:32;99479.44;;;11.16;88.93
7109;BME280;29079;41.930;25.558;2023-03-22T11:17:08;99483.25;;;11.04;85.19
7109;BME280;29079;41.930;25.558;2023-03-22T11:19:49;99482.53;;;11.21;87.64
7109;BME280;29079;41.930;25.558;2023-03-22T11:22:24;99477.03;;;11.13;85.25
7109;BME280;29079;41.930;25.558;2023-03-22T11:24:58;99475.78;;;11.17;86.23
7109;BME280;29079;41.930;25.558;2023-03-22T11:27:34;99480.00;;;11.20;86.55
7109;BME280;29079;41.930;25.558;2023-03-22T11:30:16;99469.72;;;11.15;84.55
7109;BME280;29079;41.930;25.558;2023-03-22T11:32:58;99474.22;;;11.05;85.01
7109;BME280;29079;41.930;25.558;2023-03-22T11:35:32;99471.56;;;10.95;83.55
7109;BME280;29079;41.930;25.558;2023-03-22T11:38:14;99466.09;;;10.87;83.77
7109;BME280;29079;41.930;25.558;2023-03-22T11:40:55;99464.81;;;11.01;85.64
7109;BME280;29079;41.930;25.558;2023-03-22T11:43:32;99465.53;;;11.12;85.00
7109;BME280;29079;41.930;25.558;2023-03-22T11:46:06;99460.91;;;10.95;84.51
7109;BME280;29079;41.930;25.558;2023-03-22T11:48:40;99458.50;;;11.11;84.68
7109;BME280;29079;41.930;25.558;2023-03-22T11:51:14;99460.16;;;11.32;84.56
7109;BME280;29079;41.930;25.558;2023-03-22T11:53:53;99459.03;;;11.25;82.76
7109;BME280;29079;41.930;25.558;2023-03-22T11:56:28;99461.56;;;11.46;83.99
7109;BME280;29079;41.930;25.558;2023-03-22T11:59:04;99454.06;;;11.49;84.13
7109;BME280;29079;41.930;25.558;2023-03-22T12:01:39;99455.88;;;11.59;85.66
7109;BME280;29079;41.930;25.558;2023-03-22T12:04:17;99451.97;;;11.53;84.46
7109;BME280;29079;41.930;25.558;2023-03-22T12:06:52;99455.47;;;11.54;84.69
7109;BME280;29079;41.930;25.558;2023-03-22T12:09:31;99460.16;;;11.22;83.33
7109;BME280;29079;41.930;25.558;2023-03-22T12:12:11;99453.25;;;11.39;83.31
7109;BME280;29079;41.930;25.558;2023-03-22T12:14:48;99451.28;;;11.41;84.17
7109;BME280;29079;41.930;25.558;2023-03-22T12:17:26;99449.69;;;11.58;83.09
7109;BME280;29079;41.930;25.558;2023-03-22T12:20:03;99448.81;;;11.67;82.16
7109;BME280;29079;41.930;25.558;2023-03-22T12:22:40;99452.50;;;11.66;82.49
7109;BME280;29079;41.930;25.558;2023-03-22T12:25:14;99444.44;;;11.76;80.72
7109;BME280;29079;41.930;25.558;2023-03-22T12:27:49;99442.56;;;11.49;80.04
7109;BME280;29079;41.930;25.558;2023-03-22T12:30:27;99441.53;;;11.50;79.36
7109;BME280;29079;41.930;25.558;2023-03-22T12:33:03;99450.81;;;11.65;78.76
7109;BME280;29079;41.930;25.558;2023-03-22T12:35:40;99446.28;;;11.66;74.35
7109;BME280;29079;41.930;25.558;2023-03-22T12:38:21;99436.84;;;11.72;74.66
7109;BME280;29079;41.930;25.558;2023-03-22T12:40:56;99441.63;;;11.78;74.86
7109;BME280;29079;41.930;25.558;2023-03-22T12:46:22;99443.41;;;11.87;77.25
7109;BME280;29079;41.930;25.558;2023-03-22T12:49:00;99435.53;;;11.95;77.64
7109;BME280;29079;41.930;25.558;2023-03-22T12:51:34;99436.91;;;11.99;77.77
7109;BME280;29079;41.930;25.558;2023-03-22T12:54:08;99438.28;;;12.04;76.64
7109;BME280;29079;41.930;25.558;2023-03-22T12:56:44;99443.16;;;11.80;75.46
7109;BME280;29079;41.930;25.558;2023-03-22T12:59:19;99447.97;;;11.77;76.43
7109;BME280;29079;41.930;25.558;2023-03-22T13:01:56;99434.72;;;11.85;77.50
7109;BME280;29079;41.930;25.558;2023-03-22T13:04:31;99439.59;;;11.90;76.11
7109;BME280;29079;41.930;25.558;2023-03-22T13:07:30;99439.75;;;11.88;77.61
7109;BME280;29079;41.930;25.558;2023-03-22T13:13:08;99435.78;;;12.02;75.92
7109;BME280;29079;41.930;25.558;2023-03-22T13:15:57;99445.94;;;11.98;73.83
7109;BME280;29079;41.930;25.558;2023-03-22T13:18:37;99449.28;;;12.00;71.68
7109;BME280;29079;41.930;25.558;2023-03-22T13:21:15;99454.94;;;11.97;72.25
7109;BME280;29079;41.930;25.558;2023-03-22T13:23:54;99447.19;;;12.04;71.18
7109;BME280;29079;41.930;25.558;2023-03-22T13:26:30;99441.13;;;12.02;69.80
7109;BME280;29079;41.930;25.558;2023-03-22T13:29:09;99444.88;;;12.09;70.62
7109;BME280;29079;41.930;25.558;2023-03-22T13:31:43;99443.31;;;12.16;70.83
7109;BME280;29079;41.930;25.558;2023-03-22T13:34:19;99435.38;;;12.25;69.94
7109;BME280;29079;41.930;25.558;2023-03-22T13:36:54;99445.97;;;12.44;70.21
7109;BME280;29079;41.930;25.558;2023-03-22T13:39:31;99436.78;;;12.47;70.15
7109;BME280;29079;41.930;25.558;2023-03-22T13:42:06;99437.72;;;12.38;70.17
7109;BME280;29079;41.930;25.558;2023-03-22T13:44:40;99436.69;;;12.39;69.63
7109;BME280;29079;41.930;25.558;2023-03-22T13:47:29;99428.50;;;12.40;69.16
7109;BME280;29079;41.930;25.558;2023-03-22T13:50:11;99431.44;;;12.47;69.66
7109;BME280;29079;41.930;25.558;2023-03-22T13:52:50;99438.09;;;12.43;69.67
7109;BME280;29079;41.930;25.558;2023-03-22T13:55:38;99432.50;;;12.36;69.91
7109;BME280;29079;41.930;25.558;2023-03-22T14:01:03;99432.34;;;12.38;69.41
7109;BME280;29079;41.930;25.558;2023-03-22T14:03:39;99435.88;;;12.38;70.47
7109;BME280;29079;41.930;25.558;2023-03-22T14:06:19;99440.97;;;12.31;70.65